Metar z połowy godziny Komunikat METAR ze strony awiacja.imgw.pl Metar G30 EPMI METAR EPMI 240500Z 20008KT 2000 -DZ BR BKN002 OVC010 01/01 Q1016 RMK 013 095 8/6 =